sensor_id;sensor_type;location;lat;lon;timestamp;temperature;humidity
33655;DHT22;19997;51.274;22.506;2023-02-28T00:00:35;1.50;67.20
33655;DHT22;19997;51.274;22.506;2023-02-28T00:03:03;1.40;66.60
33655;DHT22;19997;51.274;22.506;2023-02-28T00:05:30;1.40;66.90
33655;DHT22;19997;51.274;22.506;2023-02-28T00:07:57;1.30;67.00
33655;DHT22;19997;51.274;22.506;2023-02-28T00:10:26;1.30;67.20
33655;DHT22;19997;51.274;22.506;2023-02-28T00:12:55;1.30;67.50
33655;DHT22;19997;51.274;22.506;2023-02-28T00:15:24;1.20;67.40
33655;DHT22;19997;51.274;22.506;2023-02-28T00:17:51;1.20;67.50
33655;DHT22;19997;51.274;22.506;2023-02-28T00:20:19;1.10;67.60
33655;DHT22;19997;51.274;22.506;2023-02-28T00:22:49;1.10;67.70
33655;DHT22;19997;51.274;22.506;2023-02-28T00:25:17;0.90;67.90
33655;DHT22;19997;51.274;22.506;2023-02-28T00:27:45;0.80;68.00
33655;DHT22;19997;51.274;22.506;2023-02-28T00:30:15;0.80;68.00
33655;DHT22;19997;51.274;22.506;2023-02-28T00:32:44;0.70;68.10
33655;DHT22;19997;51.274;22.506;2023-02-28T00:35:11;0.60;68.30
33655;DHT22;19997;51.274;22.506;2023-02-28T00:37:41;0.50;68.50
33655;DHT22;19997;51.274;22.506;2023-02-28T00:40:09;0.40;68.70
33655;DHT22;19997;51.274;22.506;2023-02-28T00:42:37;0.30;68.90
33655;DHT22;19997;51.274;22.506;2023-02-28T00:45:05;0.30;69.10
33655;DHT22;19997;51.274;22.506;2023-02-28T00:47:32;0.20;69.40
33655;DHT22;19997;51.274;22.506;2023-02-28T00:50:01;0.10;69.50
33655;DHT22;19997;51.274;22.506;2023-02-28T00:52:28;0.00;69.70
33655;DHT22;19997;51.274;22.506;2023-02-28T00:54:55;-0.10;69.90
33655;DHT22;19997;51.274;22.506;2023-02-28T00:57:22;-0.10;70.00
33655;DHT22;19997;51.274;22.506;2023-02-28T00:59:49;-0.20;70.10
33655;DHT22;19997;51.274;22.506;2023-02-28T01:02:16;-0.30;70.20
33655;DHT22;19997;51.274;22.506;2023-02-28T01:04:43;-0.30;70.40
33655;DHT22;19997;51.274;22.506;2023-02-28T01:07:12;-0.40;70.50
33655;DHT22;19997;51.274;22.506;2023-02-28T01:09:40;-0.40;70.70
33655;DHT22;19997;51.274;22.506;2023-02-28T01:12:07;-0.50;70.80
33655;DHT22;19997;51.274;22.506;2023-02-28T01:14:35;-0.50;71.10
33655;DHT22;19997;51.274;22.506;2023-02-28T01:17:02;-0.60;71.10
33655;DHT22;19997;51.274;22.506;2023-02-28T01:19:31;-0.60;71.20
33655;DHT22;19997;51.274;22.506;2023-02-28T01:22:00;-0.70;71.20
33655;DHT22;19997;51.274;22.506;2023-02-28T01:24:29;-0.70;71.50
33655;DHT22;19997;51.274;22.506;2023-02-28T01:26:56;-0.80;71.50
33655;DHT22;19997;51.274;22.506;2023-02-28T01:29:24;-0.80;71.70
33655;DHT22;19997;51.274;22.506;2023-02-28T01:31:52;-0.90;71.80
33655;DHT22;19997;51.274;22.506;2023-02-28T01:34:19;-0.90;71.90
33655;DHT22;19997;51.274;22.506;2023-02-28T01:36:46;-0.90;72.00
33655;DHT22;19997;51.274;22.506;2023-02-28T01:39:13;-1.00;72.20
33655;DHT22;19997;51.274;22.506;2023-02-28T01:41:42;-1.00;72.40
33655;DHT22;19997;51.274;22.506;2023-02-28T01:47:10;-1.10;72.80
33655;DHT22;19997;51.274;22.506;2023-02-28T01:49:38;-1.10;72.80
33655;DHT22;19997;51.274;22.506;2023-02-28T01:52:06;-1.20;72.90
33655;DHT22;19997;51.274;22.506;2023-02-28T01:54:35;-1.20;73.20
33655;DHT22;19997;51.274;22.506;2023-02-28T01:57:08;-1.20;73.30
33655;DHT22;19997;51.274;22.506;2023-02-28T01:59:38;-1.20;73.40
33655;DHT22;19997;51.274;22.506;2023-02-28T02:02:12;-1.20;73.40
33655;DHT22;19997;51.274;22.506;2023-02-28T02:04:45;-1.20;73.40
33655;DHT22;19997;51.274;22.506;2023-02-28T02:07:18;-1.20;73.50
33655;DHT22;19997;51.274;22.506;2023-02-28T02:09:45;-1.20;73.60
33655;DHT22;19997;51.274;22.506;2023-02-28T02:12:22;-1.20;73.60
33655;DHT22;19997;51.274;22.506;2023-02-28T02:15:00;-1.20;73.70
33655;DHT22;19997;51.274;22.506;2023-02-28T02:17:35;-1.20;73.90
33655;DHT22;19997;51.274;22.506;2023-02-28T02:20:32;-1.30;73.90
33655;DHT22;19997;51.274;22.506;2023-02-28T02:23:13;-1.30;73.80
33655;DHT22;19997;51.274;22.506;2023-02-28T02:25:50;-1.30;73.80
33655;DHT22;19997;51.274;22.506;2023-02-28T02:34:37;-1.20;74.00
33655;DHT22;19997;51.274;22.506;2023-02-28T02:37:16;-1.20;74.10
33655;DHT22;19997;51.274;22.506;2023-02-28T02:39:51;-1.20;74.10
33655;DHT22;19997;51.274;22.506;2023-02-28T02:42:24;-1.20;74.10
33655;DHT22;19997;51.274;22.506;2023-02-28T02:44:59;-1.20;74.20
33655;DHT22;19997;51.274;22.506;2023-02-28T02:47:30;-1.20;74.30
33655;DHT22;19997;51.274;22.506;2023-02-28T02:50:02;-1.10;74.40
33655;DHT22;19997;51.274;22.506;2023-02-28T02:52:37;-1.10;74.50
33655;DHT22;19997;51.274;22.506;2023-02-28T02:55:07;-1.10;74.60
33655;DHT22;19997;51.274;22.506;2023-02-28T02:57:40;-1.10;74.60
33655;DHT22;19997;51.274;22.506;2023-02-28T03:00:11;-1.20;74.60
33655;DHT22;19997;51.274;22.506;2023-02-28T03:02:39;-1.10;74.70
33655;DHT22;19997;51.274;22.506;2023-02-28T03:05:14;-1.20;74.70
33655;DHT22;19997;51.274;22.506;2023-02-28T03:07:43;-1.20;74.70
33655;DHT22;19997;51.274;22.506;2023-02-28T03:10:36;-1.30;74.70
33655;DHT22;19997;51.274;22.506;2023-02-28T03:16:37;-1.30;75.00
33655;DHT22;19997;51.274;22.506;2023-02-28T03:19:30;-1.40;74.80
33655;DHT22;19997;51.274;22.506;2023-02-28T03:22:14;-1.40;74.80
33655;DHT22;19997;51.274;22.506;2023-02-28T03:24:48;-1.50;74.80
33655;DHT22;19997;51.274;22.506;2023-02-28T03:27:21;-1.60;74.90
33655;DHT22;19997;51.274;22.506;2023-02-28T03:29:55;-1.60;75.10
33655;DHT22;19997;51.274;22.506;2023-02-28T03:32:28;-1.70;75.60
33655;DHT22;19997;51.274;22.506;2023-02-28T03:34:59;-1.70;75.80
33655;DHT22;19997;51.274;22.506;2023-02-28T03:37:32;-1.70;76.20
33655;DHT22;19997;51.274;22.506;2023-02-28T03:40:06;-1.80;76.40
33655;DHT22;19997;51.274;22.506;2023-02-28T03:42:36;-1.90;76.30
33655;DHT22;19997;51.274;22.506;2023-02-28T03:45:09;-1.90;76.50
33655;DHT22;19997;51.274;22.506;2023-02-28T03:47:39;-1.90;76.70
33655;DHT22;19997;51.274;22.506;2023-02-28T03:50:11;-2.00;76.50
33655;DHT22;19997;51.274;22.506;2023-02-28T03:52:44;-2.00;76.40
33655;DHT22;19997;51.274;22.506;2023-02-28T03:55:14;-2.00;76.60
33655;DHT22;19997;51.274;22.506;2023-02-28T03:57:51;-2.00;76.70
33655;DHT22;19997;51.274;22.506;2023-02-28T04:00:27;-2.00;77.00
33655;DHT22;19997;51.274;22.506;2023-02-28T04:02:55;-2.00;77.00
33655;DHT22;19997;51.274;22.506;2023-02-28T04:06:05;-2.00;77.10
33655;DHT22;19997;51.274;22.506;2023-02-28T04:08:56;-2.00;77.10
33655;DHT22;19997;51.274;22.506;2023-02-28T04:11:26;-2.00;77.10
33655;DHT22;19997;51.274;22.506;2023-02-28T04:13:54;-2.00;77.20
33655;DHT22;19997;51.274;22.506;2023-02-28T04:16:21;-2.00;77.20
33655;DHT22;19997;51.274;22.506;2023-02-28T04:18:48;-2.00;77.20
33655;DHT22;19997;51.274;22.506;2023-02-28T04:21:15;-2.10;77.10
33655;DHT22;19997;51.274;22.506;2023-02-28T04:23:46;-2.10;77.00
33655;DHT22;19997;51.274;22.506;2023-02-28T04:26:14;-2.00;77.10
33655;DHT22;19997;51.274;22.506;2023-02-28T04:28:41;-2.10;77.20
33655;DHT22;19997;51.274;22.506;2023-02-28T04:31:09;-2.10;77.10
33655;DHT22;19997;51.274;22.506;2023-02-28T04:33:37;-2.10;77.10
33655;DHT22;19997;51.274;22.506;2023-02-28T04:36:06;-2.10;77.20
33655;DHT22;19997;51.274;22.506;2023-02-28T04:38:34;-2.00;77.50
33655;DHT22;19997;51.274;22.506;2023-02-28T04:41:02;-2.00;77.60
33655;DHT22;19997;51.274;22.506;2023-02-28T04:43:32;-2.00;77.50
33655;DHT22;19997;51.274;22.506;2023-02-28T04:46:01;-2.00;77.50
33655;DHT22;19997;51.274;22.506;2023-02-28T04:48:30;-2.00;77.50
33655;DHT22;19997;51.274;22.506;2023-02-28T04:51:00;-1.90;77.60
33655;DHT22;19997;51.274;22.506;2023-02-28T04:53:28;-1.90;77.60
33655;DHT22;19997;51.274;22.506;2023-02-28T04:55:56;-1.90;77.60
33655;DHT22;19997;51.274;22.506;2023-02-28T04:58:23;-1.80;77.70
33655;DHT22;19997;51.274;22.506;2023-02-28T05:00:52;-1.80;77.70
33655;DHT22;19997;51.274;22.506;2023-02-28T05:03:20;-1.70;77.80
33655;DHT22;19997;51.274;22.506;2023-02-28T05:05:48;-1.60;77.90
33655;DHT22;19997;51.274;22.506;2023-02-28T05:08:15;-1.50;77.90
33655;DHT22;19997;51.274;22.506;2023-02-28T05:10:42;-1.50;77.90
33655;DHT22;19997;51.274;22.506;2023-02-28T05:13:11;-1.40;77.90
33655;DHT22;19997;51.274;22.506;2023-02-28T05:15:38;-1.30;78.00
33655;DHT22;19997;51.274;22.506;2023-02-28T05:18:08;-1.20;78.00
33655;DHT22;19997;51.274;22.506;2023-02-28T05:20:36;-1.20;77.90
33655;DHT22;19997;51.274;22.506;2023-02-28T05:23:03;-1.10;77.90
33655;DHT22;19997;51.274;22.506;2023-02-28T05:25:30;-1.10;77.80
33655;DHT22;19997;51.274;22.506;2023-02-28T05:27:57;-1.10;77.70
33655;DHT22;19997;51.274;22.506;2023-02-28T05:30:24;-1.00;77.80
33655;DHT22;19997;51.274;22.506;2023-02-28T05:32:51;-0.90;77.70
33655;DHT22;19997;51.274;22.506;2023-02-28T05:35:20;-0.80;77.60
33655;DHT22;19997;51.274;22.506;2023-02-28T05:37:50;-0.80;77.50
33655;DHT22;19997;51.274;22.506;2023-02-28T05:40:17;-0.70;77.50
33655;DHT22;19997;51.274;22.506;2023-02-28T05:42:45;-0.70;77.40
33655;DHT22;19997;51.274;22.506;2023-02-28T05:45:13;-0.60;77.40
33655;DHT22;19997;51.274;22.506;2023-02-28T05:47:40;-0.60;77.30
33655;DHT22;19997;51.274;22.506;2023-02-28T05:50:08;-0.50;77.30
33655;DHT22;19997;51.274;22.506;2023-02-28T05:52:37;-0.50;77.20
33655;DHT22;19997;51.274;22.506;2023-02-28T05:55:05;-0.40;77.30
33655;DHT22;19997;51.274;22.506;2023-02-28T05:57:32;-0.40;77.10
33655;DHT22;19997;51.274;22.506;2023-02-28T05:59:59;-0.30;77.00
33655;DHT22;19997;51.274;22.506;2023-02-28T06:02:26;-0.30;77.00
33655;DHT22;19997;51.274;22.506;2023-02-28T06:04:53;-0.20;76.90
33655;DHT22;19997;51.274;22.506;2023-02-28T06:07:20;-0.10;76.90
33655;DHT22;19997;51.274;22.506;2023-02-28T06:09:49;0.00;76.80
33655;DHT22;19997;51.274;22.506;2023-02-28T06:12:16;0.00;76.70
33655;DHT22;19997;51.274;22.506;2023-02-28T06:14:43;0.10;76.70
33655;DHT22;19997;51.274;22.506;2023-02-28T06:17:10;0.20;76.70
33655;DHT22;19997;51.274;22.506;2023-02-28T06:19:37;0.30;76.60
33655;DHT22;19997;51.274;22.506;2023-02-28T06:22:07;0.40;76.50
33655;DHT22;19997;51.274;22.506;2023-02-28T06:24:34;0.50;77.20
33655;DHT22;19997;51.274;22.506;2023-02-28T06:27:02;0.60;76.40
33655;DHT22;19997;51.274;22.506;2023-02-28T06:29:31;0.70;76.30
33655;DHT22;19997;51.274;22.506;2023-02-28T06:31:59;0.70;76.10
33655;DHT22;19997;51.274;22.506;2023-02-28T06:34:26;0.80;75.90
33655;DHT22;19997;51.274;22.506;2023-02-28T06:36:53;0.90;75.80
33655;DHT22;19997;51.274;22.506;2023-02-28T06:39:20;0.90;75.50
33655;DHT22;19997;51.274;22.506;2023-02-28T06:41:47;0.90;75.30
33655;DHT22;19997;51.274;22.506;2023-02-28T06:44:16;1.00;75.30
33655;DHT22;19997;51.274;22.506;2023-02-28T06:46:45;1.00;75.20
33655;DHT22;19997;51.274;22.506;2023-02-28T06:49:12;1.00;75.00
33655;DHT22;19997;51.274;22.506;2023-02-28T06:51:41;1.10;74.90
33655;DHT22;19997;51.274;22.506;2023-02-28T06:54:11;1.10;74.80
33655;DHT22;19997;51.274;22.506;2023-02-28T06:56:38;1.10;74.80
33655;DHT22;19997;51.274;22.506;2023-02-28T06:59:05;1.10;74.80
33655;DHT22;19997;51.274;22.506;2023-02-28T07:01:34;1.20;74.80
33655;DHT22;19997;51.274;22.506;2023-02-28T07:04:01;1.20;74.80
33655;DHT22;19997;51.274;22.506;2023-02-28T07:06:28;1.30;74.70
33655;DHT22;19997;51.274;22.506;2023-02-28T07:08:55;1.30;74.40
33655;DHT22;19997;51.274;22.506;2023-02-28T07:11:24;1.30;74.40
33655;DHT22;19997;51.274;22.506;2023-02-28T07:13:52;1.30;75.10
33655;DHT22;19997;51.274;22.506;2023-02-28T07:16:19;1.40;74.30
33655;DHT22;19997;51.274;22.506;2023-02-28T07:18:48;1.40;74.30
33655;DHT22;19997;51.274;22.506;2023-02-28T07:21:15;1.50;74.20
33655;DHT22;19997;51.274;22.506;2023-02-28T07:23:42;1.50;74.00
33655;DHT22;19997;51.274;22.506;2023-02-28T07:26:12;1.60;73.70
33655;DHT22;19997;51.274;22.506;2023-02-28T07:28:40;1.60;73.60
33655;DHT22;19997;51.274;22.506;2023-02-28T07:31:07;1.70;73.60
33655;DHT22;19997;51.274;22.506;2023-02-28T07:33:35;1.80;73.60
33655;DHT22;19997;51.274;22.506;2023-02-28T07:36:05;1.80;73.10
33655;DHT22;19997;51.274;22.506;2023-02-28T07:38:33;1.80;72.90
33655;DHT22;19997;51.274;22.506;2023-02-28T07:41:01;1.90;73.00
33655;DHT22;19997;51.274;22.506;2023-02-28T07:43:30;1.90;72.80
33655;DHT22;19997;51.274;22.506;2023-02-28T07:46:01;2.00;72.90
33655;DHT22;19997;51.274;22.506;2023-02-28T07:48:29;2.00;72.60
33655;DHT22;19997;51.274;22.506;2023-02-28T07:50:56;2.10;72.80
33655;DHT22;19997;51.274;22.506;2023-02-28T07:53:25;2.10;72.60
33655;DHT22;19997;51.274;22.506;2023-02-28T07:55:54;2.20;72.50
33655;DHT22;19997;51.274;22.506;2023-02-28T07:58:21;2.30;72.40
33655;DHT22;19997;51.274;22.506;2023-02-28T08:00:49;2.30;72.10
33655;DHT22;19997;51.274;22.506;2023-02-28T08:03:17;2.40;72.00
33655;DHT22;19997;51.274;22.506;2023-02-28T08:05:44;2.40;71.50
33655;DHT22;19997;51.274;22.506;2023-02-28T08:08:11;2.40;71.10
33655;DHT22;19997;51.274;22.506;2023-02-28T08:10:40;2.50;71.30
33655;DHT22;19997;51.274;22.506;2023-02-28T08:13:07;2.50;71.00
33655;DHT22;19997;51.274;22.506;2023-02-28T08:15:34;2.50;71.00
33655;DHT22;19997;51.274;22.506;2023-02-28T08:18:02;2.50;71.00
33655;DHT22;19997;51.274;22.506;2023-02-28T08:20:29;2.60;70.50
33655;DHT22;19997;51.274;22.506;2023-02-28T08:22:56;2.60;70.70
33655;DHT22;19997;51.274;22.506;2023-02-28T08:25:23;2.70;70.80
33655;DHT22;19997;51.274;22.506;2023-02-28T08:27:52;2.70;70.70
33655;DHT22;19997;51.274;22.506;2023-02-28T08:30:19;2.80;69.90
33655;DHT22;19997;51.274;22.506;2023-02-28T08:32:46;2.80;69.90
33655;DHT22;19997;51.274;22.506;2023-02-28T08:35:13;2.80;70.10
33655;DHT22;19997;51.274;22.506;2023-02-28T08:37:41;2.90;69.90
33655;DHT22;19997;51.274;22.506;2023-02-28T08:40:09;2.90;69.60
33655;DHT22;19997;51.274;22.506;2023-02-28T08:42:36;3.00;69.50
33655;DHT22;19997;51.274;22.506;2023-02-28T08:45:06;3.10;69.30
33655;DHT22;19997;51.274;22.506;2023-02-28T08:47:33;3.20;69.00
33655;DHT22;19997;51.274;22.506;2023-02-28T08:50:00;3.20;69.00
33655;DHT22;19997;51.274;22.506;2023-02-28T08:52:27;3.30;68.90
33655;DHT22;19997;51.274;22.506;2023-02-28T08:54:54;3.40;68.70
33655;DHT22;19997;51.274;22.506;2023-02-28T08:57:21;3.40;68.60
33655;DHT22;19997;51.274;22.506;2023-02-28T08:59:48;3.50;68.40
33655;DHT22;19997;51.274;22.506;2023-02-28T09:02:17;3.60;65.90
33655;DHT22;19997;51.274;22.506;2023-02-28T09:04:44;3.60;66.00
33655;DHT22;19997;51.274;22.506;2023-02-28T09:07:12;3.60;65.20
33655;DHT22;19997;51.274;22.506;2023-02-28T09:09:39;3.50;63.80
33655;DHT22;19997;51.274;22.506;2023-02-28T09:12:20;3.40;63.10
33655;DHT22;19997;51.274;22.506;2023-02-28T09:14:47;3.30;63.90
33655;DHT22;19997;51.274;22.506;2023-02-28T09:17:14;3.20;64.60
33655;DHT22;19997;51.274;22.506;2023-02-28T09:19:43;3.20;64.90
33655;DHT22;19997;51.274;22.506;2023-02-28T09:22:10;3.30;65.40
33655;DHT22;19997;51.274;22.506;2023-02-28T09:24:38;3.40;65.40
33655;DHT22;19997;51.274;22.506;2023-02-28T09:27:05;3.50;64.30
33655;DHT22;19997;51.274;22.506;2023-02-28T09:29:33;3.50;63.80
33655;DHT22;19997;51.274;22.506;2023-02-28T09:32:01;3.50;63.80
33655;DHT22;19997;51.274;22.506;2023-02-28T09:34:31;3.40;63.90
33655;DHT22;19997;51.274;22.506;2023-02-28T09:36:59;3.50;64.20
33655;DHT22;19997;51.274;22.506;2023-02-28T09:39:26;3.50;64.20
33655;DHT22;19997;51.274;22.506;2023-02-28T09:41:55;3.70;64.50
33655;DHT22;19997;51.274;22.506;2023-02-28T09:44:28;3.80;64.60
33655;DHT22;19997;51.274;22.506;2023-02-28T09:46:59;4.00;64.60
33655;DHT22;19997;51.274;22.506;2023-02-28T09:49:33;4.10;64.40
33655;DHT22;19997;51.274;22.506;2023-02-28T09:52:04;4.20;64.30
33655;DHT22;19997;51.274;22.506;2023-02-28T09:54:36;4.30;64.00
33655;DHT22;19997;51.274;22.506;2023-02-28T09:57:07;4.30;63.50
33655;DHT22;19997;51.274;22.506;2023-02-28T09:59:42;4.30;62.80
33655;DHT22;19997;51.274;22.506;2023-02-28T10:02:28;4.30;62.40
33655;DHT22;19997;51.274;22.506;2023-02-28T10:05:00;4.30;62.00
33655;DHT22;19997;51.274;22.506;2023-02-28T10:08:15;4.30;62.30
33655;DHT22;19997;51.274;22.506;2023-02-28T10:10:45;4.30;61.60
33655;DHT22;19997;51.274;22.506;2023-02-28T10:13:19;4.30;62.00
33655;DHT22;19997;51.274;22.506;2023-02-28T10:15:50;4.30;62.20
33655;DHT22;19997;51.274;22.506;2023-02-28T10:18:23;4.30;62.10
33655;DHT22;19997;51.274;22.506;2023-02-28T10:20:51;4.40;62.50
33655;DHT22;19997;51.274;22.506;2023-02-28T10:23:23;4.40;62.50
33655;DHT22;19997;51.274;22.506;2023-02-28T10:25:55;4.40;62.30
33655;DHT22;19997;51.274;22.506;2023-02-28T10:28:25;4.40;61.50
33655;DHT22;19997;51.274;22.506;2023-02-28T10:30:54;4.30;61.50
33655;DHT22;19997;51.274;22.506;2023-02-28T10:33:28;4.20;60.90
33655;DHT22;19997;51.274;22.506;2023-02-28T10:35:55;4.10;60.90
33655;DHT22;19997;51.274;22.506;2023-02-28T10:38:26;4.00;61.40
33655;DHT22;19997;51.274;22.506;2023-02-28T10:41:05;4.00;61.20
33655;DHT22;19997;51.274;22.506;2023-02-28T10:43:34;3.90;61.70
33655;DHT22;19997;51.274;22.506;2023-02-28T10:46:03;3.90;62.00
33655;DHT22;19997;51.274;22.506;2023-02-28T10:48:34;3.90;62.10
33655;DHT22;19997;51.274;22.506;2023-02-28T10:51:02;4.00;62.00
33655;DHT22;19997;51.274;22.506;2023-02-28T10:53:37;4.00;61.90
33655;DHT22;19997;51.274;22.506;2023-02-28T10:56:12;4.00;61.60
33655;DHT22;19997;51.274;22.506;2023-02-28T10:58:50;4.00;61.60
33655;DHT22;19997;51.274;22.506;2023-02-28T11:01:19;3.90;61.30
33655;DHT22;19997;51.274;22.506;2023-02-28T11:03:47;3.90;61.50
33655;DHT22;19997;51.274;22.506;2023-02-28T11:06:17;3.80;61.60
33655;DHT22;19997;51.274;22.506;2023-02-28T11:08:49;3.70;61.60
33655;DHT22;19997;51.274;22.506;2023-02-28T11:11:17;3.70;61.90
33655;DHT22;19997;51.274;22.506;2023-02-28T11:13:46;3.70;62.30
33655;DHT22;19997;51.274;22.506;2023-02-28T11:16:15;3.80;62.40
33655;DHT22;19997;51.274;22.506;2023-02-28T11:18:46;3.80;62.40
33655;DHT22;19997;51.274;22.506;2023-02-28T11:21:22;3.80;62.00
33655;DHT22;19997;51.274;22.506;2023-02-28T11:23:54;3.80;62.40
33655;DHT22;19997;51.274;22.506;2023-02-28T11:26:39;3.90;62.40
33655;DHT22;19997;51.274;22.506;2023-02-28T11:29:12;4.00;62.50
33655;DHT22;19997;51.274;22.506;2023-02-28T11:31:42;4.00;62.00
33655;DHT22;19997;51.274;22.506;2023-02-28T11:34:24;4.00;61.80
33655;DHT22;19997;51.274;22.506;2023-02-28T11:36:55;3.90;61.60
33655;DHT22;19997;51.274;22.506;2023-02-28T11:39:25;3.90;61.60
33655;DHT22;19997;51.274;22.506;2023-02-28T11:42:06;3.90;61.30
33655;DHT22;19997;51.274;22.506;2023-02-28T11:44:45;3.80;61.40
33655;DHT22;19997;51.274;22.506;2023-02-28T11:47:24;3.70;61.20
33655;DHT22;19997;51.274;22.506;2023-02-28T11:50:07;3.70;61.50
33655;DHT22;19997;51.274;22.506;2023-02-28T11:52:40;3.70;61.80
33655;DHT22;19997;51.274;22.506;2023-02-28T11:55:19;3.80;62.00
33655;DHT22;19997;51.274;22.506;2023-02-28T11:57:56;3.80;61.90
33655;DHT22;19997;51.274;22.506;2023-02-28T12:00:44;3.90;62.10
33655;DHT22;19997;51.274;22.506;2023-02-28T12:03:26;3.90;62.30
33655;DHT22;19997;51.274;22.506;2023-02-28T12:06:01;3.90;62.40
33655;DHT22;19997;51.274;22.506;2023-02-28T12:08:44;4.00;62.30
33655;DHT22;19997;51.274;22.506;2023-02-28T12:11:24;4.00;62.30
33655;DHT22;19997;51.274;22.506;2023-02-28T12:14:05;4.10;62.50
33655;DHT22;19997;51.274;22.506;2023-02-28T12:16:52;4.10;62.50
33655;DHT22;19997;51.274;22.506;2023-02-28T12:19:23;4.20;62.70
33655;DHT22;19997;51.274;22.506;2023-02-28T12:22:02;4.20;62.60
33655;DHT22;19997;51.274;22.506;2023-02-28T12:27:44;4.40;62.40
33655;DHT22;19997;51.274;22.506;2023-02-28T12:30:16;4.40;61.80
33655;DHT22;19997;51.274;22.506;2023-02-28T12:32:46;4.40;62.20
33655;DHT22;19997;51.274;22.506;2023-02-28T12:35:17;4.50;62.30
33655;DHT22;19997;51.274;22.506;2023-02-28T12:37:49;4.60;62.50
33655;DHT22;19997;51.274;22.506;2023-02-28T12:40:22;4.60;61.80
33655;DHT22;19997;51.274;22.506;2023-02-28T12:42:52;4.50;61.70
33655;DHT22;19997;51.274;22.506;2023-02-28T12:45:23;4.60;62.00
33655;DHT22;19997;51.274;22.506;2023-02-28T12:47:55;4.60;61.70
33655;DHT22;19997;51.274;22.506;2023-02-28T12:50:24;4.50;61.90
33655;DHT22;19997;51.274;22.506;2023-02-28T12:52:58;4.50;62.10
33655;DHT22;19997;51.274;22.506;2023-02-28T12:55:33;4.60;62.30
33655;DHT22;19997;51.274;22.506;2023-02-28T12:58:12;4.60;62.20
33655;DHT22;19997;51.274;22.506;2023-02-28T13:00:52;4.60;62.00
33655;DHT22;19997;51.274;22.506;2023-02-28T13:06:32;4.70;61.90
33655;DHT22;19997;51.274;22.506;2023-02-28T13:09:09;4.70;62.30
33655;DHT22;19997;51.274;22.506;2023-02-28T13:11:40;4.70;62.40
33655;DHT22;19997;51.274;22.506;2023-02-28T13:14:23;4.80;62.10
33655;DHT22;19997;51.274;22.506;2023-02-28T13:17:01;4.70;61.60
33655;DHT22;19997;51.274;22.506;2023-02-28T13:19:30;4.60;61.70
33655;DHT22;19997;51.274;22.506;2023-02-28T13:21:59;4.60;61.50
33655;DHT22;19997;51.274;22.506;2023-02-28T13:24:43;4.60;61.80
33655;DHT22;19997;51.274;22.506;2023-02-28T13:29:59;4.60;62.20
33655;DHT22;19997;51.274;22.506;2023-02-28T13:32:36;4.60;62.20
33655;DHT22;19997;51.274;22.506;2023-02-28T13:38:17;4.50;62.20
33655;DHT22;19997;51.274;22.506;2023-02-28T13:40:48;4.60;62.20
33655;DHT22;19997;51.274;22.506;2023-02-28T13:43:17;4.60;62.30
33655;DHT22;19997;51.274;22.506;2023-02-28T13:48:32;4.50;62.10
33655;DHT22;19997;51.274;22.506;2023-02-28T13:50:59;4.50;62.00
33655;DHT22;19997;51.274;22.506;2023-02-28T13:53:39;4.50;62.10
33655;DHT22;19997;51.274;22.506;2023-02-28T13:56:22;4.40;62.10
33655;DHT22;19997;51.274;22.506;2023-02-28T13:58:54;4.40;62.90
33655;DHT22;19997;51.274;22.506;2023-02-28T14:01:35;4.40;62.40
33655;DHT22;19997;51.274;22.506;2023-02-28T14:04:42;4.40;62.50
33655;DHT22;19997;51.274;22.506;2023-02-28T14:07:31;4.40;62.60
33655;DHT22;19997;51.274;22.506;2023-02-28T14:10:02;4.30;62.70
33655;DHT22;19997;51.274;22.506;2023-02-28T14:12:56;4.30;62.90
33655;DHT22;19997;51.274;22.506;2023-02-28T14:15:43;4.30;63.20
33655;DHT22;19997;51.274;22.506;2023-02-28T14:18:18;4.30;63.10
33655;DHT22;19997;51.274;22.506;2023-02-28T14:20:52;4.40;63.70
33655;DHT22;19997;51.274;22.506;2023-02-28T14:23:34;4.30;62.80
33655;DHT22;19997;51.274;22.506;2023-02-28T14:26:08;4.30;63.00
33655;DHT22;19997;51.274;22.506;2023-02-28T14:28:50;4.30;63.20
33655;DHT22;19997;51.274;22.506;2023-02-28T14:31:25;4.40;63.30
33655;DHT22;19997;51.274;22.506;2023-02-28T14:34:10;4.40;62.90
33655;DHT22;19997;51.274;22.506;2023-02-28T14:36:43;4.30;62.60
33655;DHT22;19997;51.274;22.506;2023-02-28T14:39:13;4.30;62.60
33655;DHT22;19997;51.274;22.506;2023-02-28T14:41:43;4.30;62.80
33655;DHT22;19997;51.274;22.506;2023-02-28T14:44:16;4.20;62.70
33655;DHT22;19997;51.274;22.506;2023-02-28T14:46:45;4.30;62.80
33655;DHT22;19997;51.274;22.506;2023-02-28T14:49:18;4.30;62.50
33655;DHT22;19997;51.274;22.506;2023-02-28T14:51:48;4.30;62.30
33655;DHT22;19997;51.274;22.506;2023-02-28T14:54:18;4.20;62.30
33655;DHT22;19997;51.274;22.506;2023-02-28T14:56:50;4.20;62.50
33655;DHT22;19997;51.274;22.506;2023-02-28T14:59:26;4.20;62.70
33655;DHT22;19997;51.274;22.506;2023-02-28T15:02:15;4.20;62.60
33655;DHT22;19997;51.274;22.506;2023-02-28T15:04:42;4.20;62.60
33655;DHT22;19997;51.274;22.506;2023-02-28T15:07:14;4.30;62.80
33655;DHT22;19997;51.274;22.506;2023-02-28T15:09:41;4.40;62.70
33655;DHT22;19997;51.274;22.506;2023-02-28T15:12:13;4.40;62.60
33655;DHT22;19997;51.274;22.506;2023-02-28T15:14:43;4.50;62.80
33655;DHT22;19997;51.274;22.506;2023-02-28T15:17:16;4.50;62.80
33655;DHT22;19997;51.274;22.506;2023-02-28T15:19:49;4.60;62.50
33655;DHT22;19997;51.274;22.506;2023-02-28T15:22:23;4.60;62.30
33655;DHT22;19997;51.274;22.506;2023-02-28T15:24:55;4.60;62.40
33655;DHT22;19997;51.274;22.506;2023-02-28T15:27:25;4.70;62.70
33655;DHT22;19997;51.274;22.506;2023-02-28T15:29:56;4.70;62.50
33655;DHT22;19997;51.274;22.506;2023-02-28T15:32:28;4.80;62.50
33655;DHT22;19997;51.274;22.506;2023-02-28T15:34:57;4.80;62.20
33655;DHT22;19997;51.274;22.506;2023-02-28T15:37:37;4.90;62.30
33655;DHT22;19997;51.274;22.506;2023-02-28T15:40:12;4.80;62.40
33655;DHT22;19997;51.274;22.506;2023-02-28T15:42:40;4.70;62.30
33655;DHT22;19997;51.274;22.506;2023-02-28T15:45:27;4.60;62.30
33655;DHT22;19997;51.274;22.506;2023-02-28T15:47:55;4.40;62.60
33655;DHT22;19997;51.274;22.506;2023-02-28T15:50:22;4.20;62.80
33655;DHT22;19997;51.274;22.506;2023-02-28T15:52:51;4.10;63.20
33655;DHT22;19997;51.274;22.506;2023-02-28T15:55:20;3.90;63.60
33655;DHT22;19997;51.274;22.506;2023-02-28T15:57:50;3.80;64.00
33655;DHT22;19997;51.274;22.506;2023-02-28T16:00:21;3.60;64.30
33655;DHT22;19997;51.274;22.506;2023-02-28T16:02:49;3.50;64.60
33655;DHT22;19997;51.274;22.506;2023-02-28T16:05:22;3.30;64.70
33655;DHT22;19997;51.274;22.506;2023-02-28T16:07:55;3.20;64.90
33655;DHT22;19997;51.274;22.506;2023-02-28T16:10:24;3.10;65.10
33655;DHT22;19997;51.274;22.506;2023-02-28T16:12:53;3.00;65.30
33655;DHT22;19997;51.274;22.506;2023-02-28T16:15:24;2.90;65.40
33655;DHT22;19997;51.274;22.506;2023-02-28T16:17:56;2.80;65.70